Quetta Weather



Quetta's Current Weather

Temprature 20.612o clear sky

clear sky

Rain: 0 %

Min Temprature20.612o
Max Temprature20.612o
Humidity11
Wind Speed2.02 m/h
Sun Rise06:35:19
Sun Set17:58:43
Current Time: 18-Oct-2019 17:07:15
Lat/Lon: 30.19, 67.02




Quetta's Geo Location



Quetta's Weather Forecast

Time Overall Temp Min Temp Max Temp Humidity Wind Speed Rain
18-Oct-2019 (Fri)
20:00:00 clear sky 15.130 15.130 15.133 17 2.82 m/h 0 %
23:00:00 clear sky 12.970 12.969 12.970 20 1.09 m/h 0 %
19-Oct-2019 (Sat)
02:00:00 clear sky 10.890 10.888 10.890 23 0.16 m/h 0 %
05:00:00 clear sky 9.690 9.688 9.690 25 0.64 m/h 0 %
08:00:00 clear sky 14.912 14.912 14.912 18 0.63 m/h 0 %
11:00:00 clear sky 20.100 20.100 20.100 13 1.32 m/h 0 %
14:00:00 clear sky 22.643 22.643 22.643 10 3.73 m/h 0 %
17:00:00 clear sky 21.644 21.644 21.644 10 3.8 m/h 0 %
20:00:00 clear sky 15.291 15.291 15.291 17 1.6 m/h 0 %
23:00:00 few clouds 14.424 14.424 14.424 18 1.66 m/h 0 %
20-Oct-2019 (Sun)
02:00:00 overcast clouds 12.697 12.697 12.697 21 0.26 m/h 0 %
05:00:00 overcast clouds 10.558 10.558 10.558 25 0.33 m/h 0 %
08:00:00 clear sky 15.604 15.604 15.604 18 0.94 m/h 0 %
11:00:00 clear sky 20.910 20.910 20.910 12 2.67 m/h 0 %
14:00:00 clear sky 22.773 22.773 22.773 11 4.12 m/h 0 %
17:00:00 clear sky 21.871 21.871 21.871 11 4.79 m/h 0 %
20:00:00 clear sky 15.063 15.063 15.063 19 1.18 m/h 0 %
23:00:00 clear sky 13.529 13.529 13.529 21 1.26 m/h 0 %
21-Oct-2019 (Mon)
02:00:00 clear sky 11.516 11.516 11.516 24 0.39 m/h 0 %
05:00:00 clear sky 9.907 9.907 9.907 26 0.2 m/h 0 %
08:00:00 scattered clouds 14.862 14.862 14.862 20 0.57 m/h 0 %
11:00:00 broken clouds 20.255 20.255 20.255 13 2.05 m/h 0 %
14:00:00 broken clouds 22.058 22.058 22.058 11 2.44 m/h 0 %
17:00:00 scattered clouds 21.894 21.894 21.894 11 4.27 m/h 0 %
20:00:00 clear sky 15.143 15.143 15.143 17 1.26 m/h 0 %
23:00:00 clear sky 14.024 14.024 14.024 20 2.42 m/h 0 %
22-Oct-2019 (Tue)
02:00:00 clear sky 11.232 11.232 11.232 23 1.05 m/h 0 %
05:00:00 clear sky 9.846 9.846 9.846 23 0.12 m/h 0 %
08:00:00 clear sky 14.681 14.681 14.681 17 0.89 m/h 0 %
11:00:00 clear sky 20.515 20.515 20.515 12 2.78 m/h 0 %
14:00:00 broken clouds 22.589 22.589 22.589 13 4.09 m/h 0 %
17:00:00 scattered clouds 21.789 21.789 21.789 14 5.42 m/h 0 %
20:00:00 few clouds 14.950 14.950 14.950 25 1.82 m/h 0 %
23:00:00 scattered clouds 14.342 14.342 14.342 26 1.6 m/h 0 %
23-Oct-2019 (Wed)
02:00:00 clear sky 12.825 12.825 12.825 32 2.47 m/h 0 %
05:00:00 clear sky 11.338 11.338 11.338 35 2.12 m/h 0 %
08:00:00 clear sky 14.113 14.113 14.113 29 3.37 m/h 0 %
11:00:00 clear sky 18.854 18.854 18.854 19 5.65 m/h 0 %
14:00:00 clear sky 20.721 20.721 20.721 16 8.23 m/h 0 %
17:00:00 clear sky 19.550 19.550 19.550 16 6.71 m/h 0 %

Famous Cities (61)